Time,TemperatureF,DewpointF,PressureIn,WindDirection,WindDirectionDegrees,WindSpeedMPH,WindSpeedGustMPH,Humidity,HourlyPrecipIn,Conditions,Clouds,dailyrainin,SolarRadiationWatts/m^2,SoftwareType,DateUTC
2013-07-04 00:02:00,55.1,42.7,30.06,South,184,2.0,2.0,63,0.00,,,0.00,0,LWC V2.00 B727,2013-07-04 06:02:00,
2013-07-04 00:07:00,54.8,42.9,30.06,South,183,2.0,2.0,64,0.00,,,0.00,0,LWC V2.00 B727,2013-07-04 06:07:00,
2013-07-04 00:12:00,54.5,43.4,30.06,South,183,2.0,3.0,66,0.00,,,0.00,0,LWC V2.00 B727,2013-07-04 06:12:00,
2013-07-04 00:17:00,54.1,43.4,30.06,South,184,1.0,2.0,67,0.00,,,0.00,0,LWC V2.00 B727,2013-07-04 06:17:00,
2013-07-04 00:22:00,54.0,43.3,30.06,South,184,1.0,2.0,67,0.00,,,0.00,0,LWC V2.00 B727,2013-07-04 06:22:00,
2013-07-04 00:27:00,53.9,43.2,30.06,South,183,2.0,3.0,67,0.00,,,0.00,0,LWC V2.00 B727,2013-07-04 06:27:00,
2013-07-04 00:32:00,53.9,43.2,30.06,South,184,1.0,3.0,67,0.00,,,0.00,0,LWC V2.00 B727,2013-07-04 06:32:00,
2013-07-04 00:37:00,53.8,43.1,30.05,South,184,2.0,3.0,67,0.00,,,0.00,0,LWC V2.00 B727,2013-07-04 06:37:00,
2013-07-04 00:42:00,53.5,43.2,30.05,South,183,2.0,4.0,68,0.00,,,0.00,0,LWC V2.00 B727,2013-07-04 06:42:00,
2013-07-04 00:47:00,53.4,43.1,30.05,South,183,2.0,3.0,68,0.00,,,0.00,0,LWC V2.00 B727,2013-07-04 06:47:00,
2013-07-04 00:52:00,53.3,42.6,30.05,South,181,1.0,3.0,67,0.00,,,0.00,0,LWC V2.00 B727,2013-07-04 06:52:00,
2013-07-04 00:57:00,53.2,42.5,30.06,South,181,2.0,3.0,67,0.00,,,0.00,0,LWC V2.00 B727,2013-07-04 06:57:00,
2013-07-04 01:02:00,53.2,42.5,30.05,South,181,1.0,2.0,67,0.00,,,0.00,0,LWC V2.00 B727,2013-07-04 07:02:00,
2013-07-04 01:07:00,53.3,42.6,30.05,South,179,1.0,3.0,67,0.00,,,0.00,0,LWC V2.00 B727,2013-07-04 07:07:00,
2013-07-04 01:12:00,53.4,42.3,30.05,South,179,2.0,2.0,66,0.00,,,0.00,0,LWC V2.00 B727,2013-07-04 07:12:00,
2013-07-04 01:17:00,53.3,42.6,30.05,South,179,1.0,2.0,67,0.00,,,0.00,0,LWC V2.00 B727,2013-07-04 07:17:00,
2013-07-04 01:22:00,53.1,42.4,30.05,South,179,1.0,2.0,67,0.00,,,0.00,0,LWC V2.00 B727,2013-07-04 07:22:00,
2013-07-04 01:27:00,53.1,42.4,30.05,South,179,1.0,2.0,67,0.00,,,0.00,0,LWC V2.00 B727,2013-07-04 07:27:00,
2013-07-04 01:32:00,53.1,42.4,30.05,South,179,1.0,3.0,67,0.00,,,0.00,0,LWC V2.00 B727,2013-07-04 07:32:00,
2013-07-04 01:37:00,53.0,42.3,30.05,South,179,0.0,1.0,67,0.00,,,0.00,0,LWC V2.00 B727,2013-07-04 07:37:00,
2013-07-04 01:42:00,52.8,42.1,30.05,South,179,0.0,1.0,67,0.00,,,0.00,0,LWC V2.00 B727,2013-07-04 07:42:00,
2013-07-04 01:47:00,52.6,42.3,30.05,South,179,0.0,2.0,68,0.00,,,0.00,0,LWC V2.00 B727,2013-07-04 07:47:00,
2013-07-04 01:52:00,52.3,42.1,30.05,South,179,0.0,2.0,68,0.00,,,0.00,0,LWC V2.00 B727,2013-07-04 07:52:00,
2013-07-04 01:57:00,52.1,41.9,30.04,South,179,0.0,1.0,68,0.00,,,0.00,0,LWC V2.00 B727,2013-07-04 07:57:00,
2013-07-04 02:02:00,51.9,41.7,30.05,South,179,0.0,1.0,68,0.00,,,0.00,0,LWC V2.00 B727,2013-07-04 08:02:00,
2013-07-04 02:07:00,51.7,41.5,30.05,South,179,0.0,0.0,68,0.00,,,0.00,0,LWC V2.00 B727,2013-07-04 08:07:00,
2013-07-04 02:12:00,51.7,41.5,30.05,South,179,2.0,2.0,68,0.00,,,0.00,0,LWC V2.00 B727,2013-07-04 08:12:00,
2013-07-04 02:17:00,51.6,41.4,30.05,South,179,0.0,1.0,68,0.00,,,0.00,0,LWC V2.00 B727,2013-07-04 08:17:00,
2013-07-04 02:22:00,51.5,41.3,30.05,South,179,0.0,2.0,68,0.00,,,0.00,0,LWC V2.00 B727,2013-07-04 08:22:00,
2013-07-04 02:27:00,51.4,41.2,30.04,South,179,1.0,2.0,68,0.00,,,0.00,0,LWC V2.00 B727,2013-07-04 08:27:00,
2013-07-04 02:32:00,51.4,41.2,30.05,South,179,2.0,3.0,68,0.00,,,0.00,0,LWC V2.00 B727,2013-07-04 08:32:00,
2013-07-04 02:37:00,51.6,41.4,30.04,South,179,3.0,3.0,68,0.00,,,0.00,0,LWC V2.00 B727,2013-07-04 08:37:00,
2013-07-04 02:42:00,51.7,41.1,30.05,South,179,1.0,2.0,67,0.00,,,0.00,0,LWC V2.00 B727,2013-07-04 08:42:00,
2013-07-04 02:47:00,51.8,40.8,30.05,South,178,2.0,2.0,66,0.00,,,0.00,0,LWC V2.00 B727,2013-07-04 08:47:00,
2013-07-04 02:52:00,51.9,41.3,30.05,South,178,2.0,2.0,67,0.00,,,0.00,0,LWC V2.00 B727,2013-07-04 08:52:00,
2013-07-04 02:57:00,51.9,41.3,30.05,South,178,2.0,2.0,67,0.00,,,0.00,0,LWC V2.00 B727,2013-07-04 08:57:00,
2013-07-04 03:02:00,51.9,41.3,30.04,South,178,1.0,3.0,67,0.00,,,0.00,0,LWC V2.00 B727,2013-07-04 09:02:00,
2013-07-04 03:07:00,51.9,41.3,30.04,South,177,1.0,2.0,67,0.00,,,0.00,0,LWC V2.00 B727,2013-07-04 09:07:00,
2013-07-04 03:12:00,52.0,41.4,30.05,South,176,1.0,3.0,67,0.00,,,0.00,0,LWC V2.00 B727,2013-07-04 09:12:00,
2013-07-04 03:17:00,52.3,41.3,30.05,SE,146,1.0,3.0,66,0.00,,,0.00,0,LWC V2.00 B727,2013-07-04 09:17:00,
2013-07-04 03:22:00,52.3,41.3,30.05,SE,146,0.0,2.0,66,0.00,,,0.00,0,LWC V2.00 B727,2013-07-04 09:22:00,
2013-07-04 03:27:00,52.2,41.6,30.05,SE,146,0.0,1.0,67,0.00,,,0.00,0,LWC V2.00 B727,2013-07-04 09:27:00,
2013-07-04 03:32:00,51.9,41.7,30.04,SE,146,1.0,2.0,68,0.00,,,0.00,0,LWC V2.00 B727,2013-07-04 09:32:00,
2013-07-04 03:37:00,51.4,41.2,30.04,SE,146,0.0,0.0,68,0.00,,,0.00,0,LWC V2.00 B727,2013-07-04 09:37:00,
2013-07-04 03:42:00,51.0,40.8,30.04,SE,146,0.0,0.0,68,0.00,,,0.00,0,LWC V2.00 B727,2013-07-04 09:42:00,
2013-07-04 03:47:00,50.6,40.8,30.04,SE,146,1.0,1.0,69,0.00,,,0.00,0,LWC V2.00 B727,2013-07-04 09:47:00,
2013-07-04 03:52:00,50.3,40.9,30.04,SE,146,0.0,2.0,70,0.00,,,0.00,0,LWC V2.00 B727,2013-07-04 09:52:00,
2013-07-04 03:57:00,50.1,40.7,30.04,SE,146,1.0,3.0,70,0.00,,,0.00,0,LWC V2.00 B727,2013-07-04 09:57:00,
2013-07-04 04:02:00,50.0,40.6,30.04,SE,146,1.0,2.0,70,0.00,,,0.00,0,LWC V2.00 B727,2013-07-04 10:02:00,
2013-07-04 04:07:00,50.0,40.6,30.04,SE,146,0.0,0.0,70,0.00,,,0.00,0,LWC V2.00 B727,2013-07-04 10:07:00,
2013-07-04 04:12:00,50.0,40.6,30.04,SE,146,0.0,0.0,70,0.00,,,0.00,0,LWC V2.00 B727,2013-07-04 10:12:00,
2013-07-04 04:17:00,49.7,40.3,30.04,SE,146,0.0,0.0,70,0.00,,,0.00,0,LWC V2.00 B727,2013-07-04 10:17:00,
2013-07-04 04:22:00,49.5,40.1,30.04,SE,146,0.0,0.0,70,0.00,,,0.00,0,LWC V2.00 B727,2013-07-04 10:22:00,
2013-07-04 04:27:00,49.2,40.2,30.04,SE,146,0.0,0.0,71,0.00,,,0.00,0,LWC V2.00 B727,2013-07-04 10:27:00,
2013-07-04 04:32:00,48.7,40.1,30.04,SE,146,0.0,0.0,72,0.00,,,0.00,0,LWC V2.00 B727,2013-07-04 10:32:00,
2013-07-04 04:37:00,48.3,39.7,30.04,SE,146,0.0,0.0,72,0.00,,,0.00,0,LWC V2.00 B727,2013-07-04 10:37:00,
2013-07-04 04:42:00,47.9,39.7,30.05,SE,146,0.0,0.0,73,0.00,,,0.00,0,LWC V2.00 B727,2013-07-04 10:42:00,
2013-07-04 04:47:00,47.5,39.6,30.04,SE,146,0.0,0.0,74,0.00,,,0.00,0,LWC V2.00 B727,2013-07-04 10:47:00,
2013-07-04 04:52:00,47.1,39.6,30.05,SE,146,0.0,0.0,75,0.00,,,0.00,0,LWC V2.00 B727,2013-07-04 10:52:00,
2013-07-04 04:57:00,46.9,39.7,30.05,SE,146,0.0,0.0,76,0.00,,,0.00,0,LWC V2.00 B727,2013-07-04 10:57:00,
2013-07-04 05:02:00,46.8,39.6,30.05,SE,146,0.0,0.0,76,0.00,,,0.00,0,LWC V2.00 B727,2013-07-04 11:02:00,
2013-07-04 05:07:00,46.8,39.6,30.05,SE,146,0.0,1.0,76,0.00,,,0.00,0,LWC V2.00 B727,2013-07-04 11:07:00,
2013-07-04 05:12:00,47.0,39.8,30.05,SE,146,0.0,1.0,76,0.00,,,0.00,0,LWC V2.00 B727,2013-07-04 11:12:00,
2013-07-04 05:17:00,47.6,40.1,30.04,SE,146,0.0,1.0,75,0.00,,,0.00,0,LWC V2.00 B727,2013-07-04 11:17:00,
2013-07-04 05:22:00,47.9,40.4,30.04,SE,146,0.0,0.0,75,0.00,,,0.00,0,LWC V2.00 B727,2013-07-04 11:22:00,
2013-07-04 05:27:00,48.0,40.5,30.04,SE,146,0.0,1.0,75,0.00,,,0.00,0,LWC V2.00 B727,2013-07-04 11:27:00,
2013-07-04 05:32:00,48.0,40.5,30.04,SE,146,0.0,1.0,75,0.00,,,0.00,0,LWC V2.00 B727,2013-07-04 11:32:00,
2013-07-04 05:37:00,48.2,40.7,30.04,SSE,147,2.0,2.0,75,0.00,,,0.00,0,LWC V2.00 B727,2013-07-04 11:37:00,
2013-07-04 05:42:00,49.3,40.7,30.04,SSE,163,2.0,4.0,72,0.00,,,0.00,0,LWC V2.00 B727,2013-07-04 11:42:00,
2013-07-04 05:47:00,50.7,40.5,30.04,SSE,159,4.0,6.0,68,0.00,,,0.00,5,LWC V2.00 B727,2013-07-04 11:47:00,
2013-07-04 05:52:00,51.3,40.7,30.04,SSE,149,1.0,3.0,67,0.00,,,0.00,9,LWC V2.00 B727,2013-07-04 11:52:00,
2013-07-04 05:57:00,51.6,40.6,30.04,SSE,159,0.0,1.0,66,0.00,,,0.00,14,LWC V2.00 B727,2013-07-04 11:57:00,
2013-07-04 06:02:00,51.7,40.7,30.04,ESE,114,0.0,1.0,66,0.00,,,0.00,19,LWC V2.00 B727,2013-07-04 12:02:00,
2013-07-04 06:07:00,51.7,40.7,30.04,SSE,149,3.0,3.0,66,0.00,,,0.00,25,LWC V2.00 B727,2013-07-04 12:07:00,
2013-07-04 06:12:00,51.3,40.7,30.04,South,169,2.0,3.0,67,0.00,,,0.00,30,LWC V2.00 B727,2013-07-04 12:12:00,
2013-07-04 06:17:00,51.5,40.5,30.04,SSE,153,1.0,4.0,66,0.00,,,0.00,32,LWC V2.00 B727,2013-07-04 12:17:00,
2013-07-04 06:22:00,52.0,41.0,30.04,SSE,160,2.0,4.0,66,0.00,,,0.00,32,LWC V2.00 B727,2013-07-04 12:22:00,
2013-07-04 06:27:00,52.5,41.1,30.04,SSE,163,3.0,4.0,65,0.00,,,0.00,32,LWC V2.00 B727,2013-07-04 12:27:00,
2013-07-04 06:32:00,52.8,41.4,30.03,SSE,161,2.0,3.0,65,0.00,,,0.00,44,LWC V2.00 B727,2013-07-04 12:32:00,
2013-07-04 06:37:00,52.4,41.8,30.03,South,171,2.0,3.0,67,0.00,,,0.00,69,LWC V2.00 B727,2013-07-04 12:37:00,
2013-07-04 06:42:00,52.1,41.9,30.03,South,186,3.0,4.0,68,0.00,,,0.00,81,LWC V2.00 B727,2013-07-04 12:42:00,
2013-07-04 06:47:00,52.3,42.4,30.03,South,186,2.0,3.0,69,0.00,,,0.00,90,LWC V2.00 B727,2013-07-04 12:47:00,
2013-07-04 06:52:00,52.7,42.4,30.03,South,186,2.0,2.0,68,0.00,,,0.00,111,LWC V2.00 B727,2013-07-04 12:52:00,
2013-07-04 06:57:00,53.3,43.0,30.03,South,186,2.0,3.0,68,0.00,,,0.00,125,LWC V2.00 B727,2013-07-04 12:57:00,
2013-07-04 07:02:00,53.9,43.2,30.03,South,186,2.0,3.0,67,0.00,,,0.00,135,LWC V2.00 B727,2013-07-04 13:02:00,
2013-07-04 07:07:00,54.5,43.4,30.03,South,186,2.0,2.0,66,0.00,,,0.00,158,LWC V2.00 B727,2013-07-04 13:07:00,
2013-07-04 07:12:00,55.3,43.7,30.04,South,186,0.0,1.0,65,0.00,,,0.00,179,LWC V2.00 B727,2013-07-04 13:12:00,
2013-07-04 07:17:00,56.0,44.0,30.04,South,186,0.0,2.0,64,0.00,,,0.00,204,LWC V2.00 B727,2013-07-04 13:17:00,
2013-07-04 07:22:00,56.9,44.4,30.03,South,186,1.0,2.0,63,0.00,,,0.00,220,LWC V2.00 B727,2013-07-04 13:22:00,
2013-07-04 07:27:00,57.8,44.4,30.03,South,186,1.0,2.0,61,0.00,,,0.00,236,LWC V2.00 B727,2013-07-04 13:27:00,
2013-07-04 07:32:00,58.6,45.2,30.03,South,186,1.0,3.0,61,0.00,,,0.00,234,LWC V2.00 B727,2013-07-04 13:32:00,
2013-07-04 07:37:00,59.2,45.3,30.04,South,186,0.0,2.0,60,0.00,,,0.00,265,LWC V2.00 B727,2013-07-04 13:37:00,
2013-07-04 07:42:00,60.1,46.2,30.03,South,186,0.0,1.0,60,0.00,,,0.00,276,LWC V2.00 B727,2013-07-04 13:42:00,
2013-07-04 07:47:00,61.0,46.6,30.04,South,186,0.0,3.0,59,0.00,,,0.00,290,LWC V2.00 B727,2013-07-04 13:47:00,
2013-07-04 07:52:00,61.8,45.9,30.04,South,184,1.0,1.0,56,0.00,,,0.00,308,LWC V2.00 B727,2013-07-04 13:52:00,
2013-07-04 07:57:00,62.6,45.2,30.04,South,184,1.0,2.0,53,0.00,,,0.00,257,LWC V2.00 B727,2013-07-04 13:57:00,
2013-07-04 08:02:00,63.3,45.4,30.04,South,184,1.0,2.0,52,0.00,,,0.00,350,LWC V2.00 B727,2013-07-04 14:02:00,
2013-07-04 08:07:00,63.9,44.9,30.04,South,184,0.0,0.0,50,0.00,,,0.00,367,LWC V2.00 B727,2013-07-04 14:07:00,
2013-07-04 08:12:00,64.5,45.4,30.04,South,184,0.0,0.0,50,0.00,,,0.00,378,LWC V2.00 B727,2013-07-04 14:12:00,
2013-07-04 08:17:00,65.3,45.1,30.04,South,184,0.0,2.0,48,0.00,,,0.00,390,LWC V2.00 B727,2013-07-04 14:17:00,
2013-07-04 08:22:00,65.9,48.8,30.04,South,184,0.0,1.0,54,0.00,,,0.00,406,LWC V2.00 B727,2013-07-04 14:22:00,
2013-07-04 08:27:00,66.7,46.9,30.04,South,184,0.0,2.0,49,0.00,,,0.00,424,LWC V2.00 B727,2013-07-04 14:27:00,
2013-07-04 08:32:00,67.3,46.4,30.04,South,184,0.0,0.0,47,0.00,,,0.00,439,LWC V2.00 B727,2013-07-04 14:32:00,
2013-07-04 08:37:00,67.9,46.3,30.04,South,184,0.0,1.0,46,0.00,,,0.00,457,LWC V2.00 B727,2013-07-04 14:37:00,
2013-07-04 08:42:00,68.5,47.5,30.04,South,184,0.0,0.0,47,0.00,,,0.00,473,LWC V2.00 B727,2013-07-04 14:42:00,
2013-07-04 08:47:00,69.2,48.7,30.03,South,184,0.0,1.0,48,0.00,,,0.00,487,LWC V2.00 B727,2013-07-04 14:47:00,
2013-07-04 08:52:00,69.8,49.8,30.03,South,184,0.0,0.0,49,0.00,,,0.00,506,LWC V2.00 B727,2013-07-04 14:52:00,
2013-07-04 08:57:00,70.4,48.0,30.03,South,185,2.0,3.0,45,0.00,,,0.00,520,LWC V2.00 B727,2013-07-04 14:57:00,
2013-07-04 09:02:00,71.0,48.6,30.03,South,184,1.0,2.0,45,0.00,,,0.00,540,LWC V2.00 B727,2013-07-04 15:02:00,
2013-07-04 09:07:00,71.4,47.7,30.03,South,184,1.0,1.0,43,0.00,,,0.00,557,LWC V2.00 B727,2013-07-04 15:07:00,
2013-07-04 09:12:00,71.9,46.9,30.03,South,185,0.0,0.0,41,0.00,,,0.00,575,LWC V2.00 B727,2013-07-04 15:12:00,
2013-07-04 09:17:00,72.4,46.7,30.03,ENE,59,1.0,3.0,40,0.00,,,0.00,591,LWC V2.00 B727,2013-07-04 15:17:00,
2013-07-04 09:22:00,72.7,47.6,30.03,NNE,18,3.0,4.0,41,0.00,,,0.00,606,LWC V2.00 B727,2013-07-04 15:22:00,
2013-07-04 09:27:00,73.0,47.9,30.03,West,276,1.0,4.0,41,0.00,,,0.00,619,LWC V2.00 B727,2013-07-04 15:27:00,
2013-07-04 09:32:00,73.2,48.7,30.02,WNW,298,2.0,4.0,42,0.00,,,0.00,631,LWC V2.00 B727,2013-07-04 15:32:00,
2013-07-04 09:37:00,73.3,48.2,30.03,North,349,0.0,2.0,41,0.00,,,0.00,643,LWC V2.00 B727,2013-07-04 15:37:00,
2013-07-04 09:42:00,73.4,48.3,30.03,NW,314,0.0,3.0,41,0.00,,,0.00,659,LWC V2.00 B727,2013-07-04 15:42:00,
2013-07-04 09:47:00,73.7,47.9,30.02,NNW,328,1.0,4.0,40,0.00,,,0.00,673,LWC V2.00 B727,2013-07-04 15:47:00,
2013-07-04 09:52:00,73.9,48.0,30.02,WNW,298,2.0,2.0,40,0.00,,,0.00,689,LWC V2.00 B727,2013-07-04 15:52:00,
2013-07-04 09:57:00,74.2,47.6,30.02,NNW,345,2.0,5.0,39,0.00,,,0.00,703,LWC V2.00 B727,2013-07-04 15:57:00,
2013-07-04 10:02:00,74.2,47.6,30.02,NNW,335,3.0,4.0,39,0.00,,,0.00,715,LWC V2.00 B727,2013-07-04 16:02:00,
2013-07-04 10:07:00,74.4,47.1,30.02,NW,319,2.0,5.0,38,0.00,,,0.00,728,LWC V2.00 B727,2013-07-04 16:07:00,
2013-07-04 10:12:00,74.6,48.0,30.02,North,0,0.0,3.0,39,0.00,,,0.00,742,LWC V2.00 B727,2013-07-04 16:12:00,
2013-07-04 10:17:00,74.9,48.3,30.01,SW,223,1.0,1.0,39,0.00,,,0.00,759,LWC V2.00 B727,2013-07-04 16:17:00,
2013-07-04 10:22:00,75.1,48.4,30.01,SW,215,0.0,3.0,39,0.00,,,0.00,768,LWC V2.00 B727,2013-07-04 16:22:00,
2013-07-04 10:27:00,75.6,45.2,30.01,North,355,0.0,2.0,34,0.00,,,0.00,784,LWC V2.00 B727,2013-07-04 16:27:00,
2013-07-04 10:32:00,76.0,47.1,30.00,North,355,5.0,5.0,36,0.00,,,0.00,795,LWC V2.00 B727,2013-07-04 16:32:00,
2013-07-04 10:37:00,76.2,45.8,30.01,NNW,333,5.0,5.0,34,0.00,,,0.00,805,LWC V2.00 B727,2013-07-04 16:37:00,
2013-07-04 10:42:00,76.5,46.8,30.00,NW,315,1.0,1.0,35,0.00,,,0.00,814,LWC V2.00 B727,2013-07-04 16:42:00,
2013-07-04 10:47:00,76.8,43.0,30.00,WSW,252,3.0,3.0,30,0.00,,,0.00,831,LWC V2.00 B727,2013-07-04 16:47:00,
2013-07-04 10:52:00,77.4,45.2,30.00,SW,230,4.0,5.0,32,0.00,,,0.00,863,LWC V2.00 B727,2013-07-04 16:52:00,
2013-07-04 10:57:00,77.8,45.6,29.99,NW,310,0.0,4.0,32,0.00,,,0.00,844,LWC V2.00 B727,2013-07-04 16:57:00,
2013-07-04 11:02:00,78.1,44.1,29.99,SW,231,3.0,8.0,30,0.00,,,0.00,856,LWC V2.00 B727,2013-07-04 17:02:00,
2013-07-04 11:07:00,78.6,45.4,29.99,SW,234,3.0,7.0,31,0.00,,,0.00,671,LWC V2.00 B727,2013-07-04 17:07:00,
2013-07-04 11:12:00,78.7,44.6,29.99,SW,230,5.0,5.0,30,0.00,,,0.00,886,LWC V2.00 B727,2013-07-04 17:12:00,
2013-07-04 11:17:00,78.7,43.7,29.99,SW,236,3.0,6.0,29,0.00,,,0.00,942,LWC V2.00 B727,2013-07-04 17:17:00,
2013-07-04 11:22:00,79.4,46.1,29.99,SW,220,0.0,4.0,31,0.00,,,0.00,909,LWC V2.00 B727,2013-07-04 17:22:00,
2013-07-04 11:27:00,80.1,45.0,29.99,NW,304,3.0,7.0,29,0.00,,,0.00,993,LWC V2.00 B727,2013-07-04 17:27:00,
2013-07-04 11:32:00,80.3,47.7,29.98,North,5,1.0,6.0,32,0.00,,,0.00,640,LWC V2.00 B727,2013-07-04 17:32:00,
2013-07-04 11:37:00,80.0,44.9,29.99,SW,222,2.0,4.0,29,0.00,,,0.00,714,LWC V2.00 B727,2013-07-04 17:37:00,
2013-07-04 11:42:00,80.0,44.9,29.98,SW,217,0.0,2.0,29,0.00,,,0.00,833,LWC V2.00 B727,2013-07-04 17:42:00,
2013-07-04 11:47:00,79.9,48.2,29.98,North,5,4.0,9.0,33,0.00,,,0.00,889,LWC V2.00 B727,2013-07-04 17:47:00,
2013-07-04 11:52:00,79.8,45.6,29.98,NNW,327,2.0,7.0,30,0.00,,,0.00,795,LWC V2.00 B727,2013-07-04 17:52:00,
2013-07-04 11:57:00,79.8,43.8,29.98,North,355,6.0,8.0,28,0.00,,,0.00,1062,LWC V2.00 B727,2013-07-04 17:57:00,
2013-07-04 12:02:00,80.3,45.1,29.98,North,0,5.0,6.0,29,0.00,,,0.00,1028,LWC V2.00 B727,2013-07-04 18:02:00,
2013-07-04 12:07:00,80.7,44.5,29.97,North,0,5.0,7.0,28,0.00,,,0.00,1027,LWC V2.00 B727,2013-07-04 18:07:00,
2013-07-04 12:12:00,80.9,44.7,29.97,North,5,5.0,6.0,28,0.00,,,0.00,979,LWC V2.00 B727,2013-07-04 18:12:00,
2013-07-04 12:17:00,81.8,46.4,29.97,NNW,340,5.0,6.0,29,0.00,,,0.00,979,LWC V2.00 B727,2013-07-04 18:17:00,
2013-07-04 12:22:00,82.0,42.7,29.97,NNW,342,3.0,6.0,25,0.00,,,0.00,990,LWC V2.00 B727,2013-07-04 18:22:00,
2013-07-04 12:27:00,81.4,43.2,29.97,North,355,0.0,5.0,26,0.00,,,0.00,1034,LWC V2.00 B727,2013-07-04 18:27:00,
2013-07-04 12:32:00,81.4,45.1,29.96,North,0,0.0,4.0,28,0.00,,,0.00,1014,LWC V2.00 B727,2013-07-04 18:32:00,
2013-07-04 12:37:00,81.4,45.1,29.96,West,265,1.0,4.0,28,0.00,,,0.00,1002,LWC V2.00 B727,2013-07-04 18:37:00,
2013-07-04 12:42:00,81.7,44.4,29.95,SW,228,5.0,7.0,27,0.00,,,0.00,1032,LWC V2.00 B727,2013-07-04 18:42:00,
2013-07-04 12:47:00,82.1,45.7,29.95,NE,40,2.0,4.0,28,0.00,,,0.00,1037,LWC V2.00 B727,2013-07-04 18:47:00,
2013-07-04 12:52:00,83.0,46.5,29.95,SW,228,3.0,5.0,28,0.00,,,0.00,1051,LWC V2.00 B727,2013-07-04 18:52:00,
2013-07-04 12:57:00,83.8,46.2,29.95,SW,225,3.0,4.0,27,0.00,,,0.00,1058,LWC V2.00 B727,2013-07-04 18:57:00,
2013-07-04 13:02:00,84.0,44.4,29.95,SW,230,6.0,7.0,25,0.00,,,0.00,302,LWC V2.00 B727,2013-07-04 19:02:00,
2013-07-04 13:07:00,83.4,42.8,29.95,SSW,210,0.0,4.0,24,0.00,,,0.00,1172,LWC V2.00 B727,2013-07-04 19:07:00,
2013-07-04 13:12:00,83.2,43.7,29.95,North,0,4.0,9.0,25,0.00,,,0.00,239,LWC V2.00 B727,2013-07-04 19:12:00,
2013-07-04 13:17:00,82.9,45.5,29.94,NNW,337,7.0,12.0,27,0.00,,,0.00,1113,LWC V2.00 B727,2013-07-04 19:17:00,
2013-07-04 13:22:00,83.2,43.7,29.94,North,0,5.0,5.0,25,0.00,,,0.00,1113,LWC V2.00 B727,2013-07-04 19:22:00,
2013-07-04 13:27:00,83.5,45.0,29.94,NNW,327,4.0,9.0,26,0.00,,,0.00,1153,LWC V2.00 B727,2013-07-04 19:27:00,
2013-07-04 13:32:00,83.7,47.1,29.94,NNW,345,4.0,5.0,28,0.00,,,0.00,1190,LWC V2.00 B727,2013-07-04 19:32:00,
2013-07-04 13:37:00,84.0,48.3,29.93,NNE,15,3.0,8.0,29,0.00,,,0.00,1218,LWC V2.00 B727,2013-07-04 19:37:00,
2013-07-04 13:42:00,83.9,44.3,29.94,NNW,331,5.0,7.0,25,0.00,,,0.00,406,LWC V2.00 B727,2013-07-04 19:42:00,
2013-07-04 13:47:00,83.9,45.3,29.94,North,355,2.0,8.0,26,0.00,,,0.00,1129,LWC V2.00 B727,2013-07-04 19:47:00,
2013-07-04 13:52:00,83.6,46.1,29.94,North,5,2.0,5.0,27,0.00,,,0.00,329,LWC V2.00 B727,2013-07-04 19:52:00,
2013-07-04 13:57:00,82.9,43.4,29.94,North,5,0.0,1.0,25,0.00,,,0.00,396,LWC V2.00 B727,2013-07-04 19:57:00,
2013-07-04 14:02:00,82.4,42.0,29.94,South,186,0.0,6.0,24,0.00,,,0.00,336,LWC V2.00 B727,2013-07-04 20:02:00,
2013-07-04 14:07:00,81.7,45.4,29.93,South,184,1.0,5.0,28,0.00,,,0.00,388,LWC V2.00 B727,2013-07-04 20:07:00,
2013-07-04 14:12:00,83.7,45.1,29.94,North,0,4.0,6.0,26,0.00,,,0.00,1183,LWC V2.00 B727,2013-07-04 20:12:00,
2013-07-04 14:17:00,83.8,47.2,29.93,SW,222,0.0,0.0,28,0.00,,,0.00,541,LWC V2.00 B727,2013-07-04 20:17:00,
2013-07-04 14:22:00,83.8,45.2,29.93,WNW,284,1.0,1.0,26,0.00,,,0.00,290,LWC V2.00 B727,2013-07-04 20:22:00,
2013-07-04 14:27:00,83.3,43.8,29.93,WSW,244,7.0,7.0,25,0.00,,,0.00,253,LWC V2.00 B727,2013-07-04 20:27:00,
2013-07-04 14:32:00,83.1,43.6,29.93,NNW,336,1.0,3.0,25,0.00,,,0.00,1049,LWC V2.00 B727,2013-07-04 20:32:00,
2013-07-04 14:37:00,82.9,42.4,29.93,NNW,335,0.0,0.0,24,0.00,,,0.00,315,LWC V2.00 B727,2013-07-04 20:37:00,
2013-07-04 14:42:00,82.3,42.9,29.93,SW,234,0.0,4.0,25,0.00,,,0.00,1136,LWC V2.00 B727,2013-07-04 20:42:00,
2013-07-04 14:47:00,82.8,43.4,29.92,SW,226,0.0,0.0,25,0.00,,,0.00,369,LWC V2.00 B727,2013-07-04 20:47:00,
2013-07-04 14:52:00,82.5,40.9,29.92,SSW,203,0.0,4.0,23,0.00,,,0.00,272,LWC V2.00 B727,2013-07-04 20:52:00,
2013-07-04 14:57:00,81.4,43.2,29.92,SSW,196,2.0,3.0,26,0.00,,,0.00,255,LWC V2.00 B727,2013-07-04 20:57:00,
2013-07-04 15:02:00,81.0,45.7,29.92,North,0,3.0,4.0,29,0.00,,,0.00,234,LWC V2.00 B727,2013-07-04 21:02:00,
2013-07-04 15:07:00,80.5,41.4,29.92,NNW,334,3.0,8.0,25,0.00,,,0.00,353,LWC V2.00 B727,2013-07-04 21:07:00,
2013-07-04 15:12:00,80.6,42.5,29.92,NNW,348,2.0,4.0,26,0.00,,,0.00,621,LWC V2.00 B727,2013-07-04 21:12:00,
2013-07-04 15:17:00,82.4,48.7,29.93,NNE,33,6.0,7.0,31,0.00,,,0.00,1121,LWC V2.00 B727,2013-07-04 21:17:00,
2013-07-04 15:22:00,81.4,48.7,29.93,NNE,28,6.0,10.0,32,0.00,,,0.00,1067,LWC V2.00 B727,2013-07-04 21:22:00,
2013-07-04 15:27:00,80.4,48.6,29.92,East,86,2.0,5.0,33,0.00,,,0.00,364,LWC V2.00 B727,2013-07-04 21:27:00,
2013-07-04 15:32:00,79.7,48.8,29.92,NE,47,5.0,8.0,34,0.00,,,0.00,958,LWC V2.00 B727,2013-07-04 21:32:00,
2013-07-04 15:37:00,79.8,48.9,29.92,East,96,2.0,7.0,34,0.00,,,0.00,933,LWC V2.00 B727,2013-07-04 21:37:00,
2013-07-04 15:42:00,80.8,50.6,29.92,ESE,110,0.0,7.0,35,0.00,,,0.00,907,LWC V2.00 B727,2013-07-04 21:42:00,
2013-07-04 15:47:00,81.5,50.4,29.91,ENE,71,5.0,5.0,34,0.00,,,0.00,905,LWC V2.00 B727,2013-07-04 21:47:00,
2013-07-04 15:52:00,82.1,49.3,29.91,SE,135,2.0,3.0,32,0.00,,,0.00,886,LWC V2.00 B727,2013-07-04 21:52:00,
2013-07-04 15:58:00,82.7,49.0,29.91,ESE,113,0.0,3.0,31,0.00,,,0.00,874,LWC V2.00 B727,2013-07-04 21:58:00,
2013-07-04 16:03:00,83.3,48.6,29.90,SE,134,0.0,3.0,30,0.00,,,0.00,831,LWC V2.00 B727,2013-07-04 22:03:00,
2013-07-04 16:08:00,83.6,48.9,29.90,East,89,2.0,4.0,30,0.00,,,0.00,708,LWC V2.00 B727,2013-07-04 22:08:00,
2013-07-04 16:13:00,83.3,49.5,29.90,ESE,109,0.0,2.0,31,0.00,,,0.00,744,LWC V2.00 B727,2013-07-04 22:13:00,
2013-07-04 16:18:00,82.8,49.0,29.89,NNE,33,2.0,7.0,31,0.00,,,0.00,538,LWC V2.00 B727,2013-07-04 22:18:00,
2013-07-04 16:23:00,81.2,45.9,29.90,ENE,61,10.0,10.0,29,0.00,,,0.00,216,LWC V2.00 B727,2013-07-04 22:23:00,
2013-07-04 16:28:00,79.3,46.0,29.89,NE,46,4.0,8.0,31,0.00,,,0.00,234,LWC V2.00 B727,2013-07-04 22:28:00,
2013-07-04 16:33:00,77.9,46.5,29.89,ESE,109,1.0,6.0,33,0.00,,,0.00,253,LWC V2.00 B727,2013-07-04 22:33:00,
2013-07-04 16:38:00,77.0,47.2,29.89,NE,44,2.0,10.0,35,0.00,,,0.00,146,LWC V2.00 B727,2013-07-04 22:38:00,
2013-07-04 16:43:00,76.5,47.5,29.89,NNE,23,6.0,11.0,36,0.00,,,0.00,571,LWC V2.00 B727,2013-07-04 22:43:00,
2013-07-04 16:48:00,76.2,47.3,29.89,NNE,31,7.0,7.0,36,0.00,,,0.00,657,LWC V2.00 B727,2013-07-04 22:48:00,
2013-07-04 16:53:00,76.8,48.5,29.89,ENE,64,3.0,8.0,37,0.00,,,0.00,592,LWC V2.00 B727,2013-07-04 22:53:00,
2013-07-04 16:58:00,77.3,47.5,29.89,NE,55,2.0,7.0,35,0.00,,,0.00,606,LWC V2.00 B727,2013-07-04 22:58:00,
2013-07-04 17:03:00,77.7,47.8,29.89,ENE,76,0.0,4.0,35,0.00,,,0.00,601,LWC V2.00 B727,2013-07-04 23:03:00,
2013-07-04 17:08:00,78.3,47.6,29.89,ENE,69,1.0,5.0,34,0.00,,,0.00,591,LWC V2.00 B727,2013-07-04 23:08:00,
2013-07-04 17:13:00,78.9,48.9,29.88,ENE,75,0.0,3.0,35,0.00,,,0.00,580,LWC V2.00 B727,2013-07-04 23:13:00,
2013-07-04 17:18:00,79.2,46.8,29.88,ENE,61,1.0,3.0,32,0.00,,,0.00,563,LWC V2.00 B727,2013-07-04 23:18:00,
2013-07-04 17:23:00,79.4,46.9,29.88,East,82,1.0,5.0,32,0.00,,,0.00,541,LWC V2.00 B727,2013-07-04 23:23:00,
2013-07-04 17:28:00,79.4,46.9,29.88,East,86,3.0,6.0,32,0.00,,,0.00,522,LWC V2.00 B727,2013-07-04 23:28:00,
2013-07-04 17:33:00,79.3,46.9,29.88,NE,42,4.0,7.0,32,0.00,,,0.00,524,LWC V2.00 B727,2013-07-04 23:33:00,
2013-07-04 17:38:00,79.0,47.4,29.88,NE,38,4.0,6.0,33,0.00,,,0.00,316,LWC V2.00 B727,2013-07-04 23:38:00,
2013-07-04 17:43:00,78.4,47.7,29.89,NE,38,0.0,6.0,34,0.00,,,0.00,501,LWC V2.00 B727,2013-07-04 23:43:00,
2013-07-04 17:48:00,77.9,46.5,29.88,ENE,60,0.0,5.0,33,0.00,,,0.00,478,LWC V2.00 B727,2013-07-04 23:48:00,
2013-07-04 17:53:00,77.5,46.1,29.89,NNE,32,5.0,10.0,33,0.00,,,0.00,79,LWC V2.00 B727,2013-07-04 23:53:00,
2013-07-04 17:58:00,77.2,46.6,29.88,NE,34,4.0,7.0,34,0.00,,,0.00,67,LWC V2.00 B727,2013-07-04 23:58:00,
2013-07-04 18:03:00,76.9,46.4,29.88,East,80,2.0,5.0,34,0.00,,,0.00,67,LWC V2.00 B727,2013-07-05 00:03:00,
2013-07-04 18:08:00,76.3,46.6,29.89,North,0,6.0,9.0,35,0.00,,,0.00,63,LWC V2.00 B727,2013-07-05 00:08:00,
2013-07-04 18:13:00,75.9,45.5,29.89,East,83,6.0,7.0,34,0.00,,,0.00,62,LWC V2.00 B727,2013-07-05 00:13:00,
2013-07-04 18:18:00,75.6,46.7,29.89,NE,41,9.0,9.0,36,0.00,,,0.00,69,LWC V2.00 B727,2013-07-05 00:18:00,
2013-07-04 18:23:00,75.5,45.9,29.89,ENE,78,3.0,6.0,35,0.00,,,0.00,72,LWC V2.00 B727,2013-07-05 00:23:00,
2013-07-04 18:28:00,75.1,45.6,29.89,East,90,1.0,5.0,35,0.00,,,0.00,63,LWC V2.00 B727,2013-07-05 00:28:00,
2013-07-04 18:33:00,74.7,45.2,29.89,ESE,114,0.0,3.0,35,0.00,,,0.00,53,LWC V2.00 B727,2013-07-05 00:33:00,
2013-07-04 18:38:00,74.2,44.8,29.89,ESE,119,0.0,2.0,35,0.00,,,0.00,53,LWC V2.00 B727,2013-07-05 00:38:00,
2013-07-04 18:43:00,73.7,45.8,29.88,ESE,106,0.0,1.0,37,0.00,,,0.00,49,LWC V2.00 B727,2013-07-05 00:43:00,
2013-07-04 18:48:00,73.3,46.1,29.89,ENE,64,0.0,2.0,38,0.00,,,0.00,46,LWC V2.00 B727,2013-07-05 00:48:00,
2013-07-04 18:53:00,73.0,46.6,29.88,ENE,64,0.0,1.0,39,0.00,,,0.00,39,LWC V2.00 B727,2013-07-05 00:53:00,
2013-07-04 18:58:00,72.5,46.8,29.89,ENE,65,0.0,0.0,40,0.00,,,0.00,35,LWC V2.00 B727,2013-07-05 00:58:00,
2013-07-04 19:03:00,72.2,46.5,29.89,ENE,65,0.0,0.0,40,0.00,,,0.00,35,LWC V2.00 B727,2013-07-05 01:03:00,
2013-07-04 19:08:00,71.9,46.9,29.89,ENE,65,0.0,0.0,41,0.00,,,0.00,30,LWC V2.00 B727,2013-07-05 01:08:00,
2013-07-04 19:13:00,71.3,48.8,29.89,ENE,65,0.0,0.0,45,0.00,,,0.00,28,LWC V2.00 B727,2013-07-05 01:13:00,
2013-07-04 19:18:00,70.7,48.3,29.89,ENE,64,0.0,0.0,45,0.00,,,0.00,26,LWC V2.00 B727,2013-07-05 01:18:00,
2013-07-04 19:23:00,70.1,47.8,29.90,ENE,65,0.0,0.0,45,0.00,,,0.00,25,LWC V2.00 B727,2013-07-05 01:23:00,
2013-07-04 19:28:00,69.5,46.0,29.90,ENE,64,0.0,1.0,43,0.00,,,0.00,25,LWC V2.00 B727,2013-07-05 01:28:00,
2013-07-04 19:33:00,68.9,44.9,29.90,ENE,64,0.0,0.0,42,0.00,,,0.00,23,LWC V2.00 B727,2013-07-05 01:33:00,
2013-07-04 19:38:00,68.4,44.4,29.90,ENE,64,0.0,1.0,42,0.00,,,0.00,19,LWC V2.00 B727,2013-07-05 01:38:00,
2013-07-04 19:43:00,68.0,44.7,29.90,ENE,67,0.0,0.0,43,0.00,,,0.00,16,LWC V2.00 B727,2013-07-05 01:43:00,
2013-07-04 19:48:00,67.7,45.6,29.90,ENE,67,0.0,0.0,45,0.00,,,0.00,14,LWC V2.00 B727,2013-07-05 01:48:00,
2013-07-04 19:53:00,67.4,44.7,29.90,ENE,67,0.0,1.0,44,0.00,,,0.00,11,LWC V2.00 B727,2013-07-05 01:53:00,
2013-07-04 19:58:00,67.0,44.4,29.91,ENE,67,0.0,0.0,44,0.00,,,0.00,9,LWC V2.00 B727,2013-07-05 01:58:00,
2013-07-04 20:03:00,66.7,44.7,29.91,ENE,68,1.0,1.0,45,0.00,,,0.00,7,LWC V2.00 B727,2013-07-05 02:03:00,
2013-07-04 20:08:00,66.5,45.1,29.91,SE,127,0.0,0.0,46,0.00,,,0.00,5,LWC V2.00 B727,2013-07-05 02:08:00,
2013-07-04 20:13:00,66.4,46.1,29.91,SE,127,0.0,0.0,48,0.00,,,0.00,5,LWC V2.00 B727,2013-07-05 02:13:00,
2013-07-04 20:18:00,66.0,45.7,29.91,SE,127,0.0,0.0,48,0.00,,,0.00,0,LWC V2.00 B727,2013-07-05 02:18:00,
2013-07-04 20:23:00,65.5,45.3,29.91,SE,127,0.0,0.0,48,0.00,,,0.00,0,LWC V2.00 B727,2013-07-05 02:23:00,
2013-07-04 20:28:00,65.0,44.8,29.91,SE,131,0.0,0.0,48,0.00,,,0.00,0,LWC V2.00 B727,2013-07-05 02:28:00,
2013-07-04 20:33:00,64.6,44.5,29.91,SE,132,0.0,1.0,48,0.00,,,0.00,0,LWC V2.00 B727,2013-07-05 02:33:00,
2013-07-04 20:38:00,64.2,44.1,29.92,SSE,152,1.0,3.0,48,0.00,,,0.00,0,LWC V2.00 B727,2013-07-05 02:38:00,
2013-07-04 20:43:00,64.0,44.5,29.92,South,178,0.0,5.0,49,0.00,,,0.00,0,LWC V2.00 B727,2013-07-05 02:43:00,
2013-07-04 20:48:00,63.9,43.8,29.92,South,177,0.0,1.0,48,0.00,,,0.00,0,LWC V2.00 B727,2013-07-05 02:48:00,
2013-07-04 20:53:00,63.8,44.3,29.92,South,177,0.0,1.0,49,0.00,,,0.00,0,LWC V2.00 B727,2013-07-05 02:53:00,
2013-07-04 20:58:00,63.4,43.4,29.92,South,176,0.0,1.0,48,0.00,,,0.00,0,LWC V2.00 B727,2013-07-05 02:58:00,
2013-07-04 21:03:00,63.5,42.9,29.93,South,177,0.0,3.0,47,0.00,,,0.00,0,LWC V2.00 B727,2013-07-05 03:03:00,
2013-07-04 21:08:00,63.7,43.1,29.93,South,177,0.0,0.0,47,0.00,,,0.00,0,LWC V2.00 B727,2013-07-05 03:08:00,
2013-07-04 21:13:00,63.5,43.5,29.93,South,176,0.0,1.0,48,0.00,,,0.00,0,LWC V2.00 B727,2013-07-05 03:13:00,
2013-07-04 21:18:00,63.0,43.5,29.93,South,177,0.0,1.0,49,0.00,,,0.00,0,LWC V2.00 B727,2013-07-05 03:18:00,
2013-07-04 21:23:00,62.5,43.1,29.94,South,177,0.0,1.0,49,0.00,,,0.00,0,LWC V2.00 B727,2013-07-05 03:23:00,
2013-07-04 21:28:00,62.0,43.1,29.94,South,177,0.0,0.0,50,0.00,,,0.00,0,LWC V2.00 B727,2013-07-05 03:28:00,
2013-07-04 21:33:00,61.3,43.5,29.94,South,176,0.0,1.0,52,0.00,,,0.00,0,LWC V2.00 B727,2013-07-05 03:33:00,
2013-07-04 21:38:00,60.8,43.1,29.95,SSE,158,0.0,3.0,52,0.00,,,0.00,0,LWC V2.00 B727,2013-07-05 03:38:00,
2013-07-04 21:43:00,60.6,42.9,29.95,SSE,161,0.0,2.0,52,0.00,,,0.00,0,LWC V2.00 B727,2013-07-05 03:43:00,
2013-07-04 21:48:00,60.6,42.9,29.95,SSE,159,0.0,1.0,52,0.00,,,0.00,0,LWC V2.00 B727,2013-07-05 03:48:00,
2013-07-04 21:53:00,60.7,43.0,29.96,SSE,159,0.0,2.0,52,0.00,,,0.00,0,LWC V2.00 B727,2013-07-05 03:53:00,
2013-07-04 21:58:00,60.7,43.0,29.96,SSE,159,1.0,1.0,52,0.00,,,0.00,0,LWC V2.00 B727,2013-07-05 03:58:00,
2013-07-04 22:01:00,60.7,43.0,29.97,SSE,159,0.0,0.0,52,0.00,,,0.00,0,LWC V2.00 B727,2013-07-05 04:01:00,
2013-07-04 22:06:00,60.5,43.3,29.96,SSE,159,0.0,0.0,53,0.00,,,0.00,0,LWC V2.00 B727,2013-07-05 04:06:00,
2013-07-04 22:11:00,60.4,43.2,29.97,SSE,159,0.0,0.0,53,0.00,,,0.00,0,LWC V2.00 B727,2013-07-05 04:11:00,
2013-07-04 22:16:00,59.9,43.2,29.97,SSE,159,0.0,0.0,54,0.00,,,0.00,0,LWC V2.00 B727,2013-07-05 04:16:00,
2013-07-04 22:20:00,59.6,43.9,29.97,SSE,159,0.0,2.0,56,0.00,,,0.00,0,LWC V2.00 B727,2013-07-05 04:20:00,
2013-07-04 22:21:00,59.5,43.3,29.98,SSE,159,0.0,1.0,55,0.00,,,0.00,0,LWC V2.00 B727,2013-07-05 04:21:00,
2013-07-04 22:30:00,60.7,43.0,29.96,SSE,158,0.0,3.0,52,0.00,,,0.00,0,LWC V2.00 B727,2013-07-05 04:30:00,
2013-07-04 22:40:00,59.6,43.4,29.98,SSE,158,0.0,4.0,55,0.00,,,0.00,0,LWC V2.00 B727,2013-07-05 04:40:00,
2013-07-04 22:50:00,59.6,43.4,29.98,SSE,158,0.0,4.0,55,0.00,,,0.00,0,LWC V2.00 B727,2013-07-05 04:50:00,
2013-07-04 23:00:00,59.6,43.4,29.98,SSE,158,0.0,4.0,55,0.00,,,0.00,0,LWC V2.00 B727,2013-07-05 05:00:00,
2013-07-04 23:10:00,61.1,43.3,29.98,SSE,158,0.0,3.0,52,0.00,,,0.00,0,LWC V2.00 B727,2013-07-05 05:10:00,
2013-07-04 23:20:00,61.1,43.3,29.98,SSE,158,0.0,3.0,52,0.00,,,0.00,0,LWC V2.00 B727,2013-07-05 05:20:00,
2013-07-04 23:30:00,61.1,43.3,29.98,SSE,158,0.0,3.0,52,0.00,,,0.00,0,LWC V2.00 B727,2013-07-05 05:30:00,
2013-07-04 23:40:00,61.6,44.8,29.98,SSE,158,0.0,3.0,54,0.00,,,0.00,0,LWC V2.00 B727,2013-07-05 05:40:00,
2013-07-04 23:50:00,61.6,44.8,29.98,SSE,158,0.0,3.0,54,0.00,,,0.00,0,LWC V2.00 B727,2013-07-05 05:50:00,